createdAt,value
2023-08-29T05:00:20.725Z,13.11
2023-08-29T05:02:48.053Z,13.09
2023-08-29T05:05:14.863Z,13.09
2023-08-29T05:07:42.127Z,13.11
2023-08-29T05:10:09.985Z,13.16
2023-08-29T05:12:36.784Z,13.18
2023-08-29T05:15:03.960Z,13.17
2023-08-29T05:17:30.829Z,13.20
2023-08-29T05:19:58.382Z,13.23
2023-08-29T05:22:25.530Z,13.26
2023-08-29T05:24:52.357Z,13.28
2023-08-29T05:27:19.961Z,13.31
2023-08-29T05:29:46.563Z,13.36
2023-08-29T05:32:13.900Z,13.40
2023-08-29T05:34:41.521Z,13.43
2023-08-29T05:37:08.222Z,13.46
2023-08-29T05:39:35.764Z,13.50
2023-08-29T05:42:02.427Z,13.53
2023-08-29T05:44:29.515Z,13.57
2023-08-29T05:46:57.078Z,13.64
2023-08-29T05:49:23.835Z,13.66
2023-08-29T05:51:52.956Z,13.66
2023-08-29T05:54:21.227Z,13.68
2023-08-29T05:56:47.860Z,13.69
2023-08-29T05:59:14.692Z,13.73
2023-08-29T06:01:42.368Z,13.75
2023-08-29T06:04:09.173Z,13.79
2023-08-29T06:06:36.910Z,13.91
2023-08-29T06:09:04.740Z,13.94
2023-08-29T06:11:31.428Z,13.97
2023-08-29T06:13:58.590Z,14.01
2023-08-29T06:16:26.143Z,14.11
2023-08-29T06:18:52.782Z,14.14
2023-08-29T06:21:21.395Z,14.22
2023-08-29T06:23:48.103Z,14.29
2023-08-29T06:26:17.492Z,14.35
2023-08-29T06:28:44.222Z,14.40
2023-08-29T06:31:11.384Z,14.45
2023-08-29T06:33:39.830Z,14.52
2023-08-29T06:36:07.089Z,14.55
2023-08-29T06:38:36.352Z,14.59
2023-08-29T06:41:04.257Z,14.63
2023-08-29T06:43:32.395Z,14.67
2023-08-29T06:45:59.176Z,14.73
2023-08-29T06:48:26.344Z,14.75
2023-08-29T06:50:53.846Z,14.80
2023-08-29T06:53:20.480Z,14.85
2023-08-29T06:55:48.405Z,14.88
2023-08-29T06:58:15.079Z,14.91
2023-08-29T07:00:42.211Z,14.97
2023-08-29T07:03:09.948Z,15.01
2023-08-29T07:05:36.557Z,15.04
2023-08-29T07:08:05.736Z,15.04
2023-08-29T07:10:32.702Z,15.10
2023-08-29T07:12:59.872Z,15.19
2023-08-29T07:15:27.641Z,15.18
2023-08-29T07:17:55.000Z,15.19
2023-08-29T07:20:22.876Z,15.18
2023-08-29T07:22:49.539Z,15.25
2023-08-29T07:25:19.670Z,15.34
2023-08-29T07:27:46.236Z,15.33
2023-08-29T07:30:16.481Z,15.43
2023-08-29T07:32:45.866Z,15.55
2023-08-29T07:35:12.880Z,15.64
2023-08-29T07:37:40.526Z,15.74
2023-08-29T07:40:10.044Z,15.82
2023-08-29T07:42:37.188Z,15.94
2023-08-29T07:45:04.637Z,16.03
2023-08-29T07:47:31.824Z,16.00
2023-08-29T07:49:58.431Z,16.03
2023-08-29T07:52:25.598Z,16.19
2023-08-29T07:54:53.120Z,16.33
2023-08-29T07:57:19.719Z,16.46
2023-08-29T07:59:47.287Z,16.53
2023-08-29T08:02:16.298Z,16.56
2023-08-29T08:04:43.780Z,16.68
2023-08-29T08:07:10.399Z,16.77
2023-08-29T08:09:37.089Z,16.74
2023-08-29T08:12:04.943Z,16.78
2023-08-29T08:14:31.637Z,16.87
2023-08-29T08:16:59.200Z,16.86
2023-08-29T08:19:26.056Z,16.90
2023-08-29T08:21:52.751Z,16.79
2023-08-29T08:24:20.246Z,16.86
2023-08-29T08:26:47.109Z,16.88
2023-08-29T08:29:14.656Z,16.84
2023-08-29T08:31:41.358Z,16.85
2023-08-29T08:34:08.457Z,16.87
2023-08-29T08:36:36.052Z,16.85
2023-08-29T08:39:04.911Z,16.91
2023-08-29T08:41:33.733Z,17.00
2023-08-29T08:44:05.248Z,17.05
2023-08-29T08:46:34.907Z,17.02
2023-08-29T08:49:03.238Z,16.97
2023-08-29T08:51:32.663Z,17.03
2023-08-29T08:53:59.416Z,16.91
2023-08-29T08:56:29.540Z,16.90
2023-08-29T08:58:56.689Z,17.03
2023-08-29T09:01:24.039Z,17.08
2023-08-29T09:03:50.770Z,17.14
2023-08-29T09:06:17.973Z,17.12
2023-08-29T09:08:45.597Z,17.23
2023-08-29T09:11:12.790Z,17.35
2023-08-29T09:13:49.694Z,17.36
2023-08-29T09:16:17.825Z,17.48
2023-08-29T09:18:45.102Z,17.45
2023-08-29T09:21:19.044Z,17.40
2023-08-29T09:23:46.036Z,17.41
2023-08-29T09:26:13.781Z,17.44
2023-08-29T09:28:42.348Z,17.47
2023-08-29T09:31:11.984Z,17.45
2023-08-29T09:33:40.804Z,17.56
2023-08-29T09:36:07.897Z,17.73
2023-08-29T09:38:38.072Z,17.77
2023-08-29T09:41:05.196Z,17.73
2023-08-29T09:43:33.190Z,17.71
2023-08-29T09:46:00.625Z,17.84
2023-08-29T09:48:29.704Z,17.86
2023-08-29T09:50:59.412Z,17.91
2023-08-29T09:53:30.200Z,18.00
2023-08-29T09:56:06.914Z,18.15
2023-08-29T09:58:33.883Z,18.34
2023-08-29T10:01:02.094Z,18.55
2023-08-29T10:03:29.551Z,18.52
2023-08-29T10:05:58.732Z,18.74
2023-08-29T10:08:34.639Z,18.86
2023-08-29T10:11:01.970Z,18.94
2023-08-29T10:13:29.600Z,18.93
2023-08-29T10:15:58.407Z,18.93
2023-08-29T10:18:26.978Z,18.74
2023-08-29T10:20:55.054Z,18.74
2023-08-29T10:23:23.568Z,18.81
2023-08-29T10:25:50.499Z,18.93
2023-08-29T10:28:19.409Z,18.90
2023-08-29T10:30:52.071Z,18.71
2023-08-29T10:33:20.429Z,18.50
2023-08-29T10:35:50.233Z,18.65
2023-08-29T10:38:18.017Z,18.78
2023-08-29T10:40:45.738Z,18.85
2023-08-29T10:43:23.815Z,18.98
2023-08-29T10:46:01.042Z,18.88
2023-08-29T10:48:31.188Z,18.97
2023-08-29T10:51:12.468Z,18.99
2023-08-29T10:53:47.999Z,19.14
2023-08-29T10:56:15.429Z,19.18
2023-08-29T10:58:44.061Z,19.34
2023-08-29T11:01:28.077Z,19.72
2023-08-29T11:04:04.572Z,19.97
2023-08-29T11:06:54.889Z,20.19
2023-08-29T11:09:25.859Z,20.28
2023-08-29T11:12:13.881Z,20.27
2023-08-29T11:14:56.912Z,20.14
2023-08-29T11:17:25.426Z,20.01
2023-08-29T11:20:07.089Z,20.02
2023-08-29T11:22:33.981Z,20.07
2023-08-29T11:25:00.655Z,20.21
2023-08-29T11:27:31.600Z,20.35
2023-08-29T11:30:19.545Z,20.29
2023-08-29T11:32:52.712Z,20.36
2023-08-29T11:35:19.632Z,20.57
2023-08-29T11:37:46.255Z,20.65
2023-08-29T11:40:16.775Z,20.64
2023-08-29T11:43:18.311Z,20.46
2023-08-29T11:45:48.803Z,20.62
2023-08-29T11:48:27.372Z,20.66
2023-08-29T11:50:55.415Z,20.66
2023-08-29T11:53:49.095Z,20.57
2023-08-29T11:56:15.775Z,20.67
2023-08-29T11:58:42.708Z,20.74
2023-08-29T12:01:10.151Z,20.76
2023-08-29T12:03:38.474Z,20.65
2023-08-29T12:06:11.438Z,20.76
2023-08-29T12:08:45.752Z,20.75
2023-08-29T12:11:15.254Z,20.80
2023-08-29T12:13:57.655Z,20.85
2023-08-29T12:16:24.362Z,21.05
2023-08-29T12:18:50.943Z,21.33
2023-08-29T12:21:19.555Z,21.53
2023-08-29T12:23:46.979Z,21.51
2023-08-29T12:26:16.121Z,21.61
2023-08-29T12:28:42.875Z,21.45
2023-08-29T12:31:10.091Z,21.55
2023-08-29T12:33:37.094Z,21.53
2023-08-29T12:36:04.277Z,21.50
2023-08-29T12:38:31.810Z,21.32
2023-08-29T12:40:58.777Z,21.28
2023-08-29T12:43:25.776Z,21.01
2023-08-29T12:45:59.959Z,21.01
2023-08-29T12:48:27.460Z,21.04
2023-08-29T12:50:54.106Z,21.18
2023-08-29T12:53:20.766Z,21.03
2023-08-29T12:55:48.273Z,21.06
2023-08-29T12:58:15.120Z,21.14
2023-08-29T13:00:43.044Z,21.13
2023-08-29T13:03:10.588Z,21.18
2023-08-29T13:05:37.681Z,21.25
2023-08-29T13:08:05.598Z,20.95
2023-08-29T13:10:32.534Z,20.89
2023-08-29T13:12:59.265Z,20.86
2023-08-29T13:15:31.067Z,20.79
2023-08-29T13:18:08.657Z,20.62
2023-08-29T13:20:36.382Z,20.69
2023-08-29T13:23:03.752Z,20.81
2023-08-29T13:25:31.470Z,21.02
2023-08-29T13:27:58.915Z,21.04
2023-08-29T13:30:26.285Z,20.90
2023-08-29T13:32:53.653Z,20.85
2023-08-29T13:35:20.388Z,20.99
2023-08-29T13:37:47.503Z,21.08
2023-08-29T13:40:14.777Z,20.94
2023-08-29T13:42:42.731Z,20.85
2023-08-29T13:45:10.805Z,20.72
2023-08-29T13:47:37.652Z,20.54
2023-08-29T13:50:05.095Z,20.44
2023-08-29T13:52:31.910Z,20.46
2023-08-29T13:55:02.317Z,20.36
2023-08-29T13:57:29.596Z,20.32
2023-08-29T13:59:56.636Z,20.25
2023-08-29T14:02:24.129Z,20.20
2023-08-29T14:04:50.779Z,20.45
2023-08-29T14:07:18.379Z,20.40
2023-08-29T14:09:45.066Z,20.44
2023-08-29T14:12:12.211Z,20.45
2023-08-29T14:14:38.834Z,20.34
2023-08-29T14:17:07.015Z,20.40
2023-08-29T14:19:37.163Z,20.40
2023-08-29T14:22:07.553Z,20.30
2023-08-29T14:24:35.686Z,20.10
2023-08-29T14:27:02.889Z,20.06
2023-08-29T14:29:31.889Z,20.03
2023-08-29T14:31:59.617Z,20.25
2023-08-29T14:34:27.677Z,20.40
2023-08-29T14:36:57.848Z,20.44
2023-08-29T14:39:27.660Z,20.54
2023-08-29T14:41:54.855Z,20.62
2023-08-29T14:44:23.123Z,20.51
2023-08-29T14:46:50.251Z,20.58
2023-08-29T14:49:17.078Z,20.65
2023-08-29T14:51:44.037Z,20.79
2023-08-29T14:54:11.035Z,20.88
2023-08-29T14:56:38.582Z,20.98
2023-08-29T14:59:06.590Z,21.01
2023-08-29T15:01:36.356Z,21.09
2023-08-29T15:04:05.469Z,21.07
2023-08-29T15:06:33.661Z,21.08
2023-08-29T15:09:00.483Z,20.94
2023-08-29T15:11:27.579Z,20.86
2023-08-29T15:13:55.273Z,20.57
2023-08-29T15:16:23.679Z,20.54
2023-08-29T15:18:51.507Z,20.51
2023-08-29T15:21:20.136Z,20.40
2023-08-29T15:23:51.023Z,20.28
2023-08-29T15:26:19.295Z,20.34
2023-08-29T15:28:47.016Z,20.35
2023-08-29T15:31:16.719Z,20.39
2023-08-29T15:33:46.506Z,20.31
2023-08-29T15:36:17.654Z,20.28
2023-08-29T15:38:45.253Z,20.32
2023-08-29T15:41:13.423Z,20.26
2023-08-29T15:43:40.634Z,20.28
2023-08-29T15:46:09.378Z,20.33
2023-08-29T15:48:36.936Z,20.16
2023-08-29T15:51:06.286Z,20.12
2023-08-29T15:53:37.900Z,19.95
2023-08-29T15:56:08.529Z,19.98
2023-08-29T15:58:36.477Z,19.92
2023-08-29T16:01:08.021Z,19.81
2023-08-29T16:03:35.970Z,19.75
2023-08-29T16:06:05.853Z,19.68
2023-08-29T16:08:35.270Z,19.68
2023-08-29T16:11:02.515Z,19.52
2023-08-29T16:13:29.437Z,19.43
2023-08-29T16:15:58.191Z,19.30
2023-08-29T16:18:25.641Z,19.08
2023-08-29T16:20:54.658Z,19.05
2023-08-29T16:23:22.061Z,18.97
2023-08-29T16:25:54.172Z,18.95
2023-08-29T16:28:26.408Z,18.91
2023-08-29T16:30:53.887Z,18.90
2023-08-29T16:33:22.966Z,18.78
2023-08-29T16:35:49.843Z,18.82
2023-08-29T16:38:17.526Z,18.88
2023-08-29T16:40:44.389Z,18.80
2023-08-29T16:43:12.474Z,18.68
2023-08-29T16:45:39.270Z,18.61
2023-08-29T16:48:08.983Z,18.60
2023-08-29T16:50:36.131Z,18.61
2023-08-29T16:53:04.004Z,18.55
2023-08-29T16:55:32.584Z,18.52
2023-08-29T16:58:07.085Z,18.54
2023-08-29T17:00:36.605Z,18.51
2023-08-29T17:03:11.180Z,18.45
2023-08-29T17:05:40.273Z,18.36
2023-08-29T17:08:08.213Z,18.35
2023-08-29T17:10:36.903Z,18.24
2023-08-29T17:13:06.330Z,18.11
2023-08-29T17:15:37.527Z,18.05
2023-08-29T17:18:05.843Z,18.03
2023-08-29T17:20:33.340Z,18.01
2023-08-29T17:23:01.809Z,18.05
2023-08-29T17:25:32.812Z,18.04
2023-08-29T17:28:06.166Z,18.10
2023-08-29T17:30:34.228Z,18.14
2023-08-29T17:33:01.103Z,18.04
2023-08-29T17:35:30.748Z,18.01
2023-08-29T17:37:58.423Z,17.95
2023-08-29T17:40:34.421Z,17.87
2023-08-29T17:43:04.265Z,17.82
2023-08-29T17:45:33.715Z,17.77
2023-08-29T17:48:04.309Z,17.70
2023-08-29T17:50:32.878Z,17.64
2023-08-29T17:53:02.511Z,17.62
2023-08-29T17:55:31.377Z,17.58
2023-08-29T17:57:58.484Z,17.56
2023-08-29T18:00:25.227Z,17.55
2023-08-29T18:02:57.441Z,17.49
2023-08-29T18:05:25.704Z,17.43
2023-08-29T18:07:52.858Z,17.39
2023-08-29T18:10:20.594Z,17.38
2023-08-29T18:12:48.196Z,17.34
2023-08-29T18:15:15.757Z,17.26
2023-08-29T18:17:42.515Z,17.14
2023-08-29T18:20:09.962Z,17.09
2023-08-29T18:22:37.921Z,17.05
2023-08-29T18:25:06.074Z,17.01
2023-08-29T18:27:33.259Z,16.98
2023-08-29T18:30:00.810Z,16.93
2023-08-29T18:32:27.754Z,16.89
2023-08-29T18:34:55.718Z,16.80
2023-08-29T18:37:22.843Z,16.70
2023-08-29T18:39:49.602Z,16.63
2023-08-29T18:42:16.649Z,16.60
2023-08-29T18:44:44.099Z,16.54
2023-08-29T18:47:10.722Z,16.50
2023-08-29T18:49:38.346Z,16.45
2023-08-29T18:52:05.378Z,16.36
2023-08-29T18:54:35.085Z,16.29
2023-08-29T18:57:01.974Z,16.30
2023-08-29T18:59:29.745Z,16.20
2023-08-29T19:01:58.819Z,16.11
2023-08-29T19:04:25.797Z,16.10
2023-08-29T19:06:53.469Z,16.10
2023-08-29T19:09:20.225Z,16.09
2023-08-29T19:11:48.454Z,16.02
2023-08-29T19:14:15.137Z,15.91
2023-08-29T19:16:42.707Z,15.88
2023-08-29T19:19:11.663Z,15.80
2023-08-29T19:21:39.723Z,15.71
2023-08-29T19:24:09.949Z,15.67
2023-08-29T19:26:37.439Z,15.65
2023-08-29T19:29:04.985Z,15.59
2023-08-29T19:31:34.063Z,15.51
2023-08-29T19:34:01.511Z,15.47
2023-08-29T19:36:28.859Z,15.41
2023-08-29T19:39:04.916Z,15.39
2023-08-29T19:41:42.858Z,15.35
2023-08-29T19:44:10.589Z,15.30
2023-08-29T19:46:38.474Z,15.25
2023-08-29T19:49:05.690Z,15.19
2023-08-29T19:51:33.281Z,15.16
2023-08-29T19:54:00.001Z,15.11
2023-08-29T19:56:27.080Z,15.07
2023-08-29T19:58:53.755Z,15.04
2023-08-29T20:01:20.837Z,15.01
2023-08-29T20:03:47.501Z,14.86
2023-08-29T20:06:14.688Z,14.74
2023-08-29T20:08:42.326Z,14.66
2023-08-29T20:11:09.430Z,14.62
2023-08-29T20:13:36.533Z,14.63
2023-08-29T20:16:06.589Z,14.66
2023-08-29T20:18:33.730Z,14.67
2023-08-29T20:21:02.028Z,14.67
2023-08-29T20:23:29.663Z,14.69
2023-08-29T20:25:56.707Z,14.67
2023-08-29T20:28:23.975Z,14.64
